Time;durP1;ratioP1;P1;durP2;ratioP2;P2;SDS_P1;SDS_P2;PMS_P1;PMS_P2;Temp;Humidity;BMP_temperature;BMP_pressure;BME280_temperature;BME280_humidity;BME280_pressure;Samples;Min_cycle;Max_cycle;Signal;HPM_P1;HPM_P2
2023/06/16 00:02:06;;;;;;;8.13;4.20;;;;;;;15.94;55.92;98675.03;4967168;28;20234;-65
2023/06/16 00:04:32;;;;;;;7.00;4.87;;;;;;;15.92;55.54;98678.84;4973626;28;20240;-65
2023/06/16 00:07:01;;;;;;;5.87;4.17;;;;;;;15.87;55.98;98675.97;4979594;28;20241;-65
2023/06/16 00:09:27;;;;;;;5.03;3.70;;;;;;;15.87;56.12;98687.28;4972650;28;20309;-65
2023/06/16 00:11:56;;;;;;;4.40;4.00;;;;;;;15.81;56.62;98674.03;4975713;28;20290;-65
2023/06/16 00:14:22;;;;;;;4.80;4.10;;;;;;;15.79;56.82;98685.56;4973363;28;20234;-65
2023/06/16 00:16:49;;;;;;;6.53;4.13;;;;;;;15.74;57.54;98681.81;4974749;28;20298;-65
2023/06/16 00:19:17;;;;;;;4.90;4.30;;;;;;;15.63;56.95;98678.66;4971817;28;20241;-65
2023/06/16 00:21:45;;;;;;;4.97;4.03;;;;;;;15.57;56.97;98675.94;4974416;28;20240;-65
2023/06/16 00:24:12;;;;;;;5.10;4.07;;;;;;;15.52;57.17;98679.09;4974831;28;20237;-65
2023/06/16 00:26:39;;;;;;;4.30;3.77;;;;;;;15.48;57.38;98678.66;4978237;28;20241;-65
2023/06/16 00:29:07;;;;;;;4.83;4.33;;;;;;;15.38;58.45;98675.50;4975977;28;20323;-65
2023/06/16 00:31:34;;;;;;;7.13;4.47;;;;;;;15.28;58.24;98667.88;4974219;28;20745;-65
2023/06/16 00:34:01;;;;;;;4.40;3.80;;;;;;;15.23;57.88;98674.66;4974214;28;20234;-65
2023/06/16 00:36:28;;;;;;;6.07;4.30;;;;;;;15.19;59.27;98672.38;4976010;28;20686;-65
2023/06/16 00:38:58;;;;;;;8.93;4.10;;;;;;;15.14;59.17;98668.69;4958023;28;20222;-65
2023/06/16 00:41:24;;;;;;;6.00;4.07;;;;;;;15.12;59.19;98665.41;4958658;28;20688;-65
2023/06/16 00:44:17;;;;;;;5.43;4.30;;;;;;;15.14;59.26;98663.41;4973922;28;20242;-65
2023/06/16 00:46:44;;;;;;;6.17;4.20;;;;;;;15.18;59.37;98660.22;4961503;28;20283;-65
2023/06/16 00:49:11;;;;;;;5.53;4.57;;;;;;;15.17;59.87;98663.84;4956294;28;20218;-65
2023/06/16 00:51:38;;;;;;;5.10;4.50;;;;;;;15.18;59.75;98664.69;4959179;28;20305;-65
2023/06/16 00:54:07;;;;;;;8.13;4.33;;;;;;;15.12;59.40;98658.31;4971881;28;20236;-65
2023/06/16 00:56:36;;;;;;;5.47;4.40;;;;;;;15.05;60.23;98662.66;4955892;28;20586;-65
2023/06/16 00:59:03;;;;;;;8.23;4.73;;;;;;;15.03;59.51;98662.03;4971856;28;20284;-65
2023/06/16 01:01:31;;;;;;;5.73;4.33;;;;;;;14.96;59.88;98661.09;4955752;28;20241;-65
2023/06/16 01:03:58;;;;;;;5.37;4.50;;;;;;;14.91;59.34;98657.19;4950838;28;20238;-65
2023/06/16 01:06:36;;;;;;;5.07;4.17;;;;;;;14.93;60.08;98659.66;4955560;28;20237;-65
2023/06/16 01:09:09;;;;;;;4.70;3.93;;;;;;;14.82;59.89;98665.34;4973169;28;20226;-65
2023/06/16 01:11:42;;;;;;;6.70;4.43;;;;;;;14.81;60.21;98672.41;4972986;28;20629;-65
2023/06/16 01:14:18;;;;;;;7.03;4.07;;;;;;;14.82;60.73;98676.69;4970798;28;20220;-65
2023/06/16 01:16:48;;;;;;;5.80;4.37;;;;;;;14.71;61.13;98675.28;4959358;28;20229;-65
2023/06/16 01:19:23;;;;;;;9.40;4.53;;;;;;;14.70;61.30;98672.84;4972024;28;20229;-65
2023/06/16 01:21:57;;;;;;;6.03;4.57;;;;;;;14.70;61.14;98685.97;4959317;28;20257;-65
2023/06/16 01:24:27;;;;;;;5.23;4.63;;;;;;;14.73;61.19;98678.53;4954873;28;20236;-65
2023/06/16 01:26:58;;;;;;;5.50;4.17;;;;;;;14.74;60.81;98680.19;4958911;28;20238;-65
2023/06/16 01:29:26;;;;;;;5.27;4.10;;;;;;;14.70;61.44;98678.91;4971362;28;20335;-65
2023/06/16 01:31:57;;;;;;;5.20;4.47;;;;;;;14.78;61.58;98674.56;4953391;28;20241;-65
2023/06/16 01:34:25;;;;;;;5.27;4.07;;;;;;;14.74;61.61;98679.38;4954661;28;20240;-65
2023/06/16 01:36:53;;;;;;;5.57;4.73;;;;;;;14.72;61.39;98676.09;4955729;28;20247;-65
2023/06/16 01:39:22;;;;;;;6.83;4.67;;;;;;;14.72;61.67;98670.84;4961249;28;20673;-65
2023/06/16 01:41:51;;;;;;;6.27;4.33;;;;;;;14.65;61.95;98675.16;4958275;28;20754;-65
2023/06/16 01:44:19;;;;;;;4.87;4.33;;;;;;;14.70;62.08;98675.47;4954231;28;20249;-65
2023/06/16 01:46:46;;;;;;;6.57;4.87;;;;;;;14.69;62.50;98679.88;4959563;28;20717;-65
2023/06/16 01:49:13;;;;;;;8.03;4.73;;;;;;;14.69;62.06;98676.44;4970677;28;20234;-65
2023/06/16 01:51:40;;;;;;;7.27;4.40;;;;;;;14.73;61.92;98675.91;4958351;28;20473;-65
2023/06/16 01:54:07;;;;;;;4.73;4.23;;;;;;;14.67;62.82;98670.53;4952586;28;20230;-65
2023/06/16 01:56:33;;;;;;;6.07;4.50;;;;;;;14.73;62.43;98670.66;4958520;28;20697;-65
2023/06/16 01:59:01;;;;;;;5.80;4.67;;;;;;;14.78;62.09;98677.19;4965362;28;20226;-65
2023/06/16 02:01:30;;;;;;;5.13;4.30;;;;;;;14.69;62.20;98672.00;4962982;28;20313;-65
2023/06/16 02:04:02;;;;;;;8.23;5.17;;;;;;;14.70;62.50;98680.72;4955191;28;20307;-65
2023/06/16 02:06:37;;;;;;;7.40;4.53;;;;;;;14.67;63.40;98681.03;4971969;28;20241;-65
2023/06/16 02:09:07;;;;;;;6.90;4.27;;;;;;;14.61;63.23;98678.13;4953122;28;20268;-65
2023/06/16 02:11:35;;;;;;;5.40;4.20;;;;;;;14.61;64.44;98680.75;4975633;28;20246;-65
2023/06/16 02:14:04;;;;;;;5.87;4.53;;;;;;;14.53;63.39;98675.56;4950956;28;20265;-66
2023/06/16 02:16:36;;;;;;;5.93;4.40;;;;;;;14.53;63.86;98682.59;4973564;28;20568;-65
2023/06/16 02:19:03;;;;;;;5.30;4.57;;;;;;;14.54;63.86;98679.81;4962707;28;20227;-65
2023/06/16 02:21:30;;;;;;;10.87;4.40;;;;;;;14.46;64.04;98678.03;4971064;28;20257;-65
2023/06/16 02:23:57;;;;;;;4.70;4.10;;;;;;;14.43;63.33;98680.22;4956894;28;20235;-65
2023/06/16 02:26:24;;;;;;;7.80;4.53;;;;;;;14.41;63.35;98682.19;4969070;28;20232;-65
2023/06/16 02:28:55;;;;;;;5.73;4.53;;;;;;;14.37;64.31;98678.28;4955659;28;20715;-65
2023/06/16 02:31:23;;;;;;;6.93;4.67;;;;;;;14.31;64.26;98682.41;4952813;28;20338;-65
2023/06/16 02:33:51;;;;;;;5.70;4.67;;;;;;;14.30;65.36;98678.19;4952836;28;20241;-65
2023/06/16 02:36:18;;;;;;;4.93;4.10;;;;;;;14.24;65.50;98689.38;4954415;28;20262;-65
2023/06/16 02:38:46;;;;;;;5.93;4.70;;;;;;;14.17;65.03;98689.22;4955181;28;20306;-65
2023/06/16 02:41:12;;;;;;;8.70;4.60;;;;;;;14.13;65.84;98690.56;4952693;28;20292;-65
2023/06/16 02:43:39;;;;;;;5.37;4.63;;;;;;;14.08;65.76;98680.59;4974148;28;20230;-65
2023/06/16 02:46:07;;;;;;;5.87;4.87;;;;;;;13.99;64.73;98687.66;4954231;28;20242;-65
2023/06/16 02:48:35;;;;;;;7.30;4.57;;;;;;;13.88;65.31;98681.00;4956356;28;20293;-65
2023/06/16 02:51:02;;;;;;;9.00;4.90;;;;;;;13.85;66.97;98683.97;4968312;28;20686;-65
2023/06/16 02:53:30;;;;;;;8.80;4.70;;;;;;;13.84;66.47;98681.50;4952240;28;20591;-65
2023/06/16 02:55:58;;;;;;;5.77;4.43;;;;;;;13.83;66.67;98678.06;4960163;28;20238;-65
2023/06/16 02:58:26;;;;;;;7.57;4.57;;;;;;;13.84;66.96;98669.22;4962602;28;20646;-65
2023/06/16 03:03:53;;;;;;;4.60;4.20;;;;;;;13.74;67.06;98671.22;5720641;23;20234;-65
2023/06/16 03:06:46;;;;;;;7.60;4.70;;;;;;;13.70;67.22;98676.00;4987093;28;20244;-65
2023/06/16 03:09:27;;;;;;;6.63;4.57;;;;;;;13.62;67.64;98683.91;4971255;28;20243;-65
2023/06/16 03:11:55;;;;;;;5.53;4.53;;;;;;;13.64;67.15;98673.22;4984778;28;20284;-65
2023/06/16 03:14:22;;;;;;;6.20;4.90;;;;;;;13.64;67.32;98674.06;4970492;28;20252;-65
2023/06/16 03:16:50;;;;;;;8.17;4.50;;;;;;;13.69;67.99;98677.00;4975178;28;20229;-65
2023/06/16 03:19:19;;;;;;;5.67;4.40;;;;;;;13.57;67.91;98676.53;4969975;28;20304;-65
2023/06/16 03:21:48;;;;;;;6.63;4.67;;;;;;;13.56;67.55;98671.47;4975463;28;20234;-65
2023/06/16 03:24:16;;;;;;;11.70;4.67;;;;;;;13.57;68.18;98676.53;4971718;28;20265;-65
2023/06/16 03:26:44;;;;;;;7.23;5.60;;;;;;;13.49;68.68;98683.59;4992018;28;20714;-65
2023/06/16 03:29:16;;;;;;;16.07;4.83;;;;;;;13.47;69.15;98681.16;4979288;28;20360;-65
2023/06/16 03:31:43;;;;;;;5.23;4.30;;;;;;;13.46;69.32;98684.75;5167359;23;20327;-65
2023/06/16 03:34:12;;;;;;;9.43;5.00;;;;;;;13.51;69.21;98686.88;4962680;28;20795;-65
2023/06/16 03:36:45;;;;;;;5.50;4.63;;;;;;;13.45;69.23;98687.56;4967318;28;20563;-65
2023/06/16 03:39:12;;;;;;;7.70;5.30;;;;;;;13.45;69.50;98695.41;4967314;28;20590;-65
2023/06/16 03:41:41;;;;;;;6.20;4.73;;;;;;;13.43;69.86;98690.31;4988354;28;20233;-65
2023/06/16 03:44:09;;;;;;;9.13;4.50;;;;;;;13.45;69.45;98688.34;4963415;28;20593;-65
2023/06/16 03:46:36;;;;;;;8.67;5.03;;;;;;;13.46;69.61;98686.56;4961776;28;20293;-65
2023/06/16 03:49:03;;;;;;;7.77;4.67;;;;;;;13.42;70.54;98688.69;4951266;28;20907;-65
2023/06/16 03:51:29;;;;;;;6.60;5.07;;;;;;;13.43;70.27;98683.28;4964498;28;20692;-65
2023/06/16 03:53:59;;;;;;;5.77;4.37;;;;;;;13.50;69.04;98683.44;4969018;28;20372;-65
2023/06/16 03:56:26;;;;;;;7.07;4.97;;;;;;;13.64;68.13;98697.66;4983922;28;20698;-65
2023/06/16 03:58:57;;;;;;;6.53;4.13;;;;;;;13.71;68.55;98696.00;4970106;28;20737;-66
2023/06/16 04:01:24;;;;;;;6.57;4.33;;;;;;;13.72;69.00;98702.06;4956218;28;20225;-65
2023/06/16 04:03:57;;;;;;;7.20;4.27;;;;;;;13.71;68.92;98690.75;4971849;28;20230;-65
2023/06/16 04:06:26;;;;;;;7.00;4.43;;;;;;;13.76;69.31;98697.31;4970970;28;20226;-65
2023/06/16 04:08:59;;;;;;;8.40;4.90;;;;;;;13.81;69.06;98698.41;4985697;28;20660;-65
2023/06/16 04:11:26;;;;;;;5.60;4.67;;;;;;;13.90;68.35;98696.56;4956555;28;20234;-65
2023/06/16 04:13:57;;;;;;;5.63;4.43;;;;;;;13.89;69.94;98705.44;4985741;28;20232;-65
2023/06/16 04:16:24;;;;;;;5.97;4.50;;;;;;;13.87;69.93;98702.97;4966035;28;20236;-65
2023/06/16 04:19:02;;;;;;;8.17;4.80;;;;;;;13.93;69.32;98704.09;4966777;28;20678;-65
2023/06/16 04:21:31;;;;;;;6.20;4.80;;;;;;;13.96;70.09;98708.19;4963725;28;20265;-65
2023/06/16 04:23:59;;;;;;;6.00;4.90;;;;;;;13.99;70.74;98710.47;4970208;28;20235;-65
2023/06/16 04:26:26;;;;;;;5.30;4.60;;;;;;;14.04;71.95;98710.78;4959320;28;20778;-65
2023/06/16 04:29:03;;;;;;;6.97;5.07;;;;;;;14.07;71.59;98712.25;4969928;28;20267;-65
2023/06/16 04:31:32;;;;;;;6.47;5.07;;;;;;;14.08;70.84;98708.63;4964735;28;20243;-66
2023/06/16 04:33:59;;;;;;;6.03;4.80;;;;;;;14.10;70.94;98711.91;4969027;28;20220;-65
2023/06/16 04:36:32;;;;;;;7.37;4.47;;;;;;;14.14;70.56;98719.28;4961480;28;20240;-65
2023/06/16 04:39:04;;;;;;;7.33;5.13;;;;;;;14.22;72.05;98712.34;4947473;28;20226;-66
2023/06/16 04:41:35;;;;;;;7.07;5.13;;;;;;;14.23;72.66;98711.38;4984107;28;20246;-66
2023/06/16 04:44:02;;;;;;;6.43;4.80;;;;;;;14.32;73.25;98721.63;4956470;28;20237;-66
2023/06/16 04:46:30;;;;;;;6.73;4.83;;;;;;;14.39;73.05;98723.56;4985506;28;20230;-65
2023/06/16 04:48:58;;;;;;;8.37;4.60;;;;;;;14.37;71.90;98718.47;4961066;28;20253;-65
2023/06/16 04:51:26;;;;;;;7.07;4.80;;;;;;;14.38;71.83;98716.69;4958739;28;20241;-65
2023/06/16 04:53:58;;;;;;;5.20;4.40;;;;;;;14.43;71.62;98722.25;4967748;28;20239;-65
2023/06/16 04:56:26;;;;;;;6.20;4.67;;;;;;;14.50;72.44;98719.72;4965603;28;20778;-65
2023/06/16 04:58:57;;;;;;;8.47;4.83;;;;;;;14.57;72.39;98720.66;4967231;28;20221;-65
2023/06/16 05:01:26;;;;;;;5.67;4.50;;;;;;;14.63;73.70;98722.59;4977639;28;20231;-65
2023/06/16 05:03:57;;;;;;;5.57;4.33;;;;;;;14.66;72.59;98722.25;4984703;28;20285;-66
2023/06/16 05:06:24;;;;;;;5.00;4.23;;;;;;;14.73;72.00;98730.28;4965344;28;20244;-66
2023/06/16 05:09:16;;;;;;;5.77;4.70;;;;;;;14.78;72.23;98727.97;4983184;28;20232;-66
2023/06/16 05:11:44;;;;;;;6.83;5.27;;;;;;;14.83;72.47;98725.63;4966192;28;20266;-66
2023/06/16 05:14:11;;;;;;;7.33;4.47;;;;;;;14.91;72.35;98719.47;4949130;28;20322;-66
2023/06/16 05:16:38;;;;;;;7.93;4.97;;;;;;;14.96;72.27;98734.69;4966573;28;20225;-66
2023/06/16 05:19:04;;;;;;;6.23;4.93;;;;;;;15.04;71.46;98726.75;4964256;28;20290;-66
2023/06/16 05:21:35;;;;;;;6.63;4.50;;;;;;;15.12;70.75;98723.25;4966971;28;20240;-66
2023/06/16 05:24:02;;;;;;;5.40;4.20;;;;;;;15.19;70.94;98724.97;4964732;28;20238;-66
2023/06/16 05:26:29;;;;;;;7.50;4.80;;;;;;;15.27;70.97;98725.91;4967791;28;20566;-66
2023/06/16 05:28:59;;;;;;;6.17;4.20;;;;;;;15.34;70.26;98721.56;4967823;28;20224;-66
2023/06/16 05:31:26;;;;;;;5.60;4.87;;;;;;;15.43;69.90;98723.13;4963546;28;20259;-66
2023/06/16 05:33:57;;;;;;;6.27;4.97;;;;;;;15.54;70.92;98726.28;4961033;28;20263;-66
2023/06/16 05:36:25;;;;;;;5.37;4.67;;;;;;;15.60;70.66;98728.22;4964575;28;20244;-66
2023/06/16 05:38:55;;;;;;;5.03;4.27;;;;;;;15.75;70.38;98730.84;4984855;28;20898;-66
2023/06/16 05:41:24;;;;;;;6.17;4.43;;;;;;;16.13;70.16;98724.66;4978190;28;20251;-66
2023/06/16 05:43:56;;;;;;;5.27;4.43;;;;;;;16.59;68.64;98734.91;4967134;28;20234;-66
2023/06/16 05:46:25;;;;;;;5.30;4.60;;;;;;;16.96;67.48;98734.81;4965134;28;20243;-66
2023/06/16 05:48:58;;;;;;;5.53;4.37;;;;;;;17.20;66.16;98725.72;4966701;28;20307;-66
2023/06/16 05:51:25;;;;;;;5.60;4.17;;;;;;;17.38;64.59;98737.63;4964042;28;20236;-66
2023/06/16 05:53:58;;;;;;;5.10;4.20;;;;;;;17.52;64.02;98739.34;4967025;28;20242;-66
2023/06/16 05:56:26;;;;;;;6.10;4.57;;;;;;;17.62;62.85;98744.25;4964785;28;20233;-66
2023/06/16 05:58:58;;;;;;;5.50;4.50;;;;;;;17.78;62.22;98751.06;4966253;28;20715;-66
2023/06/16 06:01:26;;;;;;;6.13;4.57;;;;;;;17.88;62.64;98747.25;4964188;28;20298;-66
2023/06/16 06:03:57;;;;;;;6.57;4.70;;;;;;;18.04;62.06;98752.22;4967378;28;20225;-66
2023/06/16 06:06:24;;;;;;;6.37;4.80;;;;;;;18.14;61.79;98750.03;4964184;28;20707;-66
2023/06/16 06:09:16;;;;;;;6.60;4.47;;;;;;;18.25;61.96;98747.84;4981541;28;20236;-66
2023/06/16 06:11:43;;;;;;;4.87;4.37;;;;;;;18.40;61.92;98756.44;4984502;28;20245;-66
2023/06/16 06:14:11;;;;;;;5.63;4.63;;;;;;;18.54;60.92;98752.03;4963995;28;20241;-66
2023/06/16 06:16:40;;;;;;;5.83;4.43;;;;;;;18.70;60.52;98761.41;4967282;28;20255;-66
2023/06/16 06:19:07;;;;;;;4.90;4.40;;;;;;;18.85;61.18;98768.34;4979108;28;20787;-66
2023/06/16 06:21:35;;;;;;;4.87;4.07;;;;;;;18.99;60.73;98775.31;4985072;28;20310;-66
2023/06/16 06:24:03;;;;;;;4.87;4.27;;;;;;;19.13;59.46;98783.22;4957721;28;20250;-66
2023/06/16 06:26:30;;;;;;;6.80;5.23;;;;;;;19.19;54.78;98782.44;4966601;28;20788;-66
2023/06/16 06:28:59;;;;;;;9.07;6.30;;;;;;;19.14;53.59;98774.28;4967021;28;20242;-66
2023/06/16 06:31:26;;;;;;;10.00;6.50;;;;;;;19.16;53.47;98786.31;4963363;28;20285;-66
2023/06/16 06:33:59;;;;;;;11.13;6.70;;;;;;;19.24;54.24;98777.34;4966817;28;20230;-66
2023/06/16 06:36:27;;;;;;;9.70;6.10;;;;;;;19.33;56.19;98780.59;4979418;28;20289;-66
2023/06/16 06:38:59;;;;;;;14.70;6.37;;;;;;;19.53;55.70;98782.44;4957130;28;20715;-66
2023/06/16 06:41:27;;;;;;;13.90;5.93;;;;;;;19.72;55.29;98794.00;4963352;28;20241;-66
2023/06/16 06:44:06;;;;;;;9.40;5.47;;;;;;;19.87;53.79;98791.13;4978758;28;20712;-66
2023/06/16 06:46:45;;;;;;;6.53;5.80;;;;;;;20.02;54.00;98790.91;4966622;28;20225;-66
2023/06/16 06:49:14;;;;;;;11.13;6.07;;;;;;;20.06;51.83;98797.44;4964065;28;20702;-66
2023/06/16 06:51:41;;;;;;;11.00;6.10;;;;;;;20.08;50.65;98797.22;4967278;28;20623;-66
2023/06/16 06:54:08;;;;;;;10.37;6.23;;;;;;;20.11;51.20;98800.28;4980988;28;20712;-66
2023/06/16 06:56:34;;;;;;;11.20;5.87;;;;;;;20.10;50.67;98806.59;4983504;28;20233;-66
2023/06/16 06:59:01;;;;;;;8.47;5.50;;;;;;;20.13;51.42;98814.13;4982590;28;20242;-66
2023/06/16 07:01:28;;;;;;;7.73;6.70;;;;;;;20.21;50.47;98810.41;4977396;28;20242;-66
2023/06/16 07:03:58;;;;;;;9.03;6.07;;;;;;;20.25;51.22;98813.44;4974335;28;20306;-66
2023/06/16 07:06:25;;;;;;;7.60;6.60;;;;;;;20.38;50.59;98818.72;4974359;28;20242;-66
2023/06/16 07:08:58;;;;;;;7.23;5.83;;;;;;;20.41;51.57;98815.63;4983007;28;20431;-66
2023/06/16 07:11:24;;;;;;;8.07;6.30;;;;;;;20.56;51.49;98817.22;4981381;28;20232;-66
2023/06/16 07:14:16;;;;;;;9.67;6.90;;;;;;;20.71;50.27;98816.91;4979729;28;20362;-66
2023/06/16 07:16:42;;;;;;;12.03;7.17;;;;;;;20.77;50.03;98821.38;4978182;28;20233;-66
2023/06/16 07:19:09;;;;;;;6.80;5.97;;;;;;;20.86;49.24;98821.97;4958378;28;20601;-66
2023/06/16 07:21:39;;;;;;;9.27;7.37;;;;;;;20.83;50.48;98828.50;4972271;28;20757;-66
2023/06/16 07:24:06;;;;;;;12.23;6.93;;;;;;;20.72;49.07;98827.34;4973804;28;20239;-66
2023/06/16 07:26:32;;;;;;;12.33;7.33;;;;;;;20.74;50.62;98833.25;4986221;28;20242;-66
2023/06/16 07:29:00;;;;;;;10.27;6.83;;;;;;;20.83;50.48;98827.72;4984928;28;20258;-66
2023/06/16 07:31:26;;;;;;;10.40;7.80;;;;;;;20.74;50.27;98829.75;4969735;28;20240;-66
2023/06/16 07:33:57;;;;;;;8.33;7.47;;;;;;;20.94;50.74;98835.78;4976603;28;20223;-66
2023/06/16 07:36:24;;;;;;;13.03;7.27;;;;;;;21.05;51.85;98838.81;4983800;28;20239;-66
2023/06/16 07:39:17;;;;;;;9.40;7.03;;;;;;;21.09;49.76;98832.88;4984808;28;20718;-66
2023/06/16 07:41:44;;;;;;;6.63;5.90;;;;;;;21.20;50.39;98834.00;4986857;28;20234;-66
2023/06/16 07:44:10;;;;;;;11.57;7.93;;;;;;;21.16;49.95;98838.13;4984985;28;20280;-66
2023/06/16 07:46:38;;;;;;;12.67;7.60;;;;;;;21.14;49.80;98842.03;4986520;28;20289;-66
2023/06/16 07:49:05;;;;;;;11.80;6.93;;;;;;;21.25;49.34;98836.00;4982009;28;20247;-66
2023/06/16 07:51:31;;;;;;;8.43;6.70;;;;;;;21.09;49.61;98845.31;4986390;28;20239;-66
2023/06/16 07:53:58;;;;;;;9.47;6.70;;;;;;;21.30;49.95;98846.78;4986060;28;20228;-66
2023/06/16 07:56:26;;;;;;;12.50;7.30;;;;;;;21.43;48.69;98847.72;4966093;28;20230;-66
2023/06/16 07:58:57;;;;;;;9.20;6.93;;;;;;;21.50;48.29;98845.81;4985131;28;20350;-66
2023/06/16 08:01:24;;;;;;;8.33;6.60;;;;;;;21.53;48.20;98846.22;4982620;28;20257;-66
2023/06/16 08:04:16;;;;;;;8.80;6.17;;;;;;;21.53;46.60;98840.91;4983379;28;20316;-66
2023/06/16 08:06:42;;;;;;;10.47;6.30;;;;;;;21.57;47.48;98845.78;4984405;28;20233;-66
2023/06/16 08:09:11;;;;;;;7.37;6.10;;;;;;;21.67;45.86;98838.97;4983673;28;20295;-66
2023/06/16 08:11:39;;;;;;;7.63;5.63;;;;;;;21.72;45.38;98834.84;4986732;28;20244;-66
2023/06/16 08:14:06;;;;;;;7.53;6.47;;;;;;;21.59;46.23;98833.91;4983468;28;20744;-66
2023/06/16 08:16:32;;;;;;;9.90;6.13;;;;;;;21.76;46.58;98838.69;4983891;28;20302;-66
2023/06/16 08:19:00;;;;;;;7.50;5.90;;;;;;;21.95;45.53;98839.53;4986867;28;20620;-66
2023/06/16 08:21:27;;;;;;;7.80;6.40;;;;;;;21.81;45.25;98834.34;4983434;28;20231;-66
2023/06/16 08:23:57;;;;;;;6.10;5.50;;;;;;;21.89;46.14;98825.28;4985240;28;20232;-66
2023/06/16 08:26:24;;;;;;;7.80;5.30;;;;;;;22.09;45.85;98829.56;4983160;28;20235;-66
2023/06/16 08:28:56;;;;;;;6.17;5.43;;;;;;;22.30;45.62;98828.31;4985619;28;20234;-66
2023/06/16 08:31:22;;;;;;;9.90;6.57;;;;;;;22.39;44.04;98834.13;4980383;28;20631;-66
2023/06/16 08:33:50;;;;;;;7.93;5.60;;;;;;;22.22;45.63;98826.78;4985209;28;20223;-66
2023/06/16 08:36:19;;;;;;;7.70;5.80;;;;;;;22.35;45.83;98822.31;4982572;28;20236;-66
2023/06/16 08:38:46;;;;;;;8.30;5.50;;;;;;;22.49;44.00;98820.34;4983869;28;20250;-66
2023/06/16 08:41:15;;;;;;;8.23;5.77;;;;;;;22.52;44.16;98819.91;4983148;28;20223;-66
2023/06/16 08:43:44;;;;;;;6.27;5.23;;;;;;;22.64;43.43;98831.41;4963392;28;20229;-66
2023/06/16 08:46:13;;;;;;;7.23;5.57;;;;;;;22.64;43.50;98823.44;4978128;28;20217;-66
2023/06/16 08:48:40;;;;;;;7.77;5.10;;;;;;;22.66;44.04;98826.69;4985153;28;20232;-66
2023/06/16 08:51:10;;;;;;;7.50;5.23;;;;;;;22.66;42.93;98831.16;4982078;28;20232;-66
2023/06/16 08:53:39;;;;;;;8.23;5.45;;;;;;;22.69;43.54;98828.06;4983495;28;20459;-66
2023/06/16 08:56:07;;;;;;;6.60;4.73;;;;;;;22.83;41.73;98832.16;4981668;28;20289;-66
2023/06/16 08:58:35;;;;;;;5.90;4.87;;;;;;;22.83;40.78;98829.50;4968192;28;20231;-66
2023/06/16 09:01:04;;;;;;;7.83;5.00;;;;;;;22.95;41.86;98828.72;4965718;28;20240;-66
2023/06/16 09:03:32;;;;;;;8.00;5.30;;;;;;;22.90;41.54;98826.72;4960290;28;20282;-66
2023/06/16 09:06:00;;;;;;;5.97;5.30;;;;;;;22.94;42.32;98822.59;4953760;28;20321;-66
2023/06/16 09:08:27;;;;;;;9.97;5.63;;;;;;;22.97;41.25;98827.44;4963375;28;20773;-66
2023/06/16 09:10:55;;;;;;;6.90;4.67;;;;;;;23.01;41.60;98825.16;4959191;28;20242;-66
2023/06/16 09:13:22;;;;;;;8.30;5.17;;;;;;;23.13;41.96;98826.00;4961550;28;23020;-66
2023/06/16 09:15:50;;;;;;;10.93;5.57;;;;;;;23.19;40.88;98823.47;4961852;28;20238;-66
2023/06/16 09:18:17;;;;;;;8.83;5.50;;;;;;;23.27;39.12;98828.50;4953367;28;20246;-66
2023/06/16 09:20:50;;;;;;;5.60;4.97;;;;;;;23.37;36.20;98817.25;4966116;28;20237;-67
2023/06/16 09:23:27;;;;;;;6.80;4.93;;;;;;;23.38;37.58;98819.69;4953860;28;20221;-66
2023/06/16 09:25:54;;;;;;;5.33;4.27;;;;;;;23.43;38.44;98814.47;4970332;28;20234;-67
2023/06/16 09:28:33;;;;;;;8.67;4.87;;;;;;;23.56;36.63;98812.63;4960412;28;20676;-67
2023/06/16 09:31:02;;;;;;;6.43;3.90;;;;;;;23.50;32.75;98813.56;4970144;28;20296;-66
2023/06/16 09:33:30;;;;;;;9.27;4.80;;;;;;;23.42;34.30;98810.19;4961890;28;20240;-66
2023/06/16 09:35:58;;;;;;;6.40;4.60;;;;;;;23.64;34.54;98809.63;4971457;28;20701;-66
2023/06/16 09:38:26;;;;;;;6.30;4.70;;;;;;;23.82;34.47;98815.88;4961742;28;20237;-66
2023/06/16 09:40:53;;;;;;;5.60;3.93;;;;;;;23.95;31.98;98812.16;4956828;28;20227;-64
2023/06/16 09:43:20;;;;;;;6.40;4.10;;;;;;;24.09;32.47;98816.22;4958624;28;20225;-64
2023/06/16 09:45:56;;;;;;;6.17;4.20;;;;;;;24.05;32.72;98812.38;4968664;28;20247;-64
2023/06/16 09:48:25;;;;;;;8.40;4.40;;;;;;;24.05;31.83;98811.59;4954755;28;20254;-64
2023/06/16 09:50:53;;;;;;;7.07;3.90;;;;;;;24.03;32.60;98804.63;4967544;28;20719;-64
2023/06/16 09:53:23;;;;;;;6.80;4.47;;;;;;;24.23;32.78;98814.13;4937101;28;20345;-63
2023/06/16 09:55:50;;;;;;;7.20;4.97;;;;;;;24.17;32.87;98807.84;4966623;28;20255;-63
2023/06/16 09:58:17;;;;;;;8.23;3.93;;;;;;;24.14;33.35;98804.84;4967269;28;20237;-63
2023/06/16 10:00:44;;;;;;;8.10;4.80;;;;;;;24.35;33.32;98806.06;4962261;28;20780;-63
2023/06/16 10:03:12;;;;;;;8.33;5.10;;;;;;;24.50;33.87;98802.88;4962715;28;20235;-63
2023/06/16 10:05:42;;;;;;;7.63;4.63;;;;;;;24.51;32.58;98804.50;4969416;28;20243;-66
2023/06/16 10:08:11;;;;;;;8.77;4.27;;;;;;;24.46;32.15;98796.38;4968426;28;20228;-64
2023/06/16 10:10:43;;;;;;;11.90;5.20;;;;;;;24.26;33.25;98800.31;4969175;28;20326;-66
2023/06/16 10:13:11;;;;;;;5.03;4.13;;;;;;;24.46;31.74;98794.53;4965210;28;20712;-64
2023/06/16 10:15:39;;;;;;;6.77;4.60;;;;;;;24.36;32.06;98794.34;4962377;28;20234;-64
2023/06/16 10:18:08;;;;;;;9.60;4.50;;;;;;;24.36;32.35;98804.22;4964164;28;20237;-64
2023/06/16 10:20:37;;;;;;;7.20;3.80;;;;;;;24.35;30.97;98798.06;4963455;28;20237;-64
2023/06/16 10:23:04;;;;;;;6.97;4.50;;;;;;;24.43;30.98;98800.34;4955811;28;20229;-64
2023/06/16 10:25:31;;;;;;;7.07;4.50;;;;;;;24.66;31.57;98789.81;4960647;28;20259;-64
2023/06/16 10:28:00;;;;;;;6.97;4.13;;;;;;;24.84;31.00;98794.19;4955460;28;20307;-64
2023/06/16 10:30:28;;;;;;;5.33;4.47;;;;;;;24.95;31.13;98793.28;4968192;28;20234;-64
2023/06/16 10:32:57;;;;;;;6.93;4.10;;;;;;;24.94;28.53;98801.53;4962742;28;20229;-65
2023/06/16 10:35:24;;;;;;;10.47;4.77;;;;;;;24.79;29.47;98800.22;4973253;28;20285;-65
2023/06/16 10:37:53;;;;;;;6.80;3.97;;;;;;;24.85;29.12;98793.13;4962624;28;20772;-65
2023/06/16 10:40:21;;;;;;;4.67;3.80;;;;;;;25.15;29.15;98789.34;4962925;28;20235;-65
2023/06/16 10:42:51;;;;;;;6.27;4.53;;;;;;;25.18;28.35;98789.66;4965819;28;20234;-64
2023/06/16 10:45:26;;;;;;;7.47;4.23;;;;;;;25.47;28.40;98794.13;4961886;28;20228;-65
2023/06/16 10:47:57;;;;;;;6.80;4.10;;;;;;;25.24;28.38;98793.22;4968512;28;20245;-65
2023/06/16 10:50:32;;;;;;;6.40;3.70;;;;;;;25.37;28.22;98785.94;4962013;28;20266;-65
2023/06/16 10:53:09;;;;;;;12.67;4.13;;;;;;;25.50;28.23;98788.28;4961644;28;20246;-65
2023/06/16 10:55:37;;;;;;;5.63;3.70;;;;;;;25.47;27.00;98786.91;4968523;28;20316;-65
2023/06/16 10:58:26;;;;;;;10.57;3.97;;;;;;;25.53;27.41;98786.97;4961404;28;20584;-65
2023/06/16 11:01:06;;;;;;;9.37;3.90;;;;;;;25.55;27.02;98785.69;4959310;28;20706;-65
2023/06/16 11:03:36;;;;;;;7.90;4.00;;;;;;;25.91;27.25;98782.69;4954232;28;20235;-65
2023/06/16 11:06:04;;;;;;;5.17;3.53;;;;;;;25.76;25.54;98778.75;4951501;28;22088;-65
2023/06/16 11:08:31;;;;;;;5.40;3.87;;;;;;;25.50;26.76;98781.06;4968562;28;20256;-65
2023/06/16 11:11:06;;;;;;;5.73;3.50;;;;;;;25.63;26.59;98784.47;4959331;28;20236;-65
2023/06/16 11:13:38;;;;;;;6.60;4.00;;;;;;;25.84;27.42;98784.75;4965996;28;20229;-65
2023/06/16 11:16:08;;;;;;;10.53;4.37;;;;;;;25.67;27.76;98780.25;4965384;28;20768;-66
2023/06/16 11:18:35;;;;;;;6.03;4.20;;;;;;;25.77;27.40;98782.25;4970231;28;20245;-66
2023/06/16 11:21:03;;;;;;;5.90;3.90;;;;;;;25.93;26.62;98776.06;4962829;28;20293;-66
2023/06/16 11:23:30;;;;;;;6.03;3.77;;;;;;;26.36;26.86;98786.19;4956873;28;20370;-66
2023/06/16 11:26:04;;;;;;;7.27;4.13;;;;;;;26.57;25.84;98775.69;4959750;28;21014;-65
2023/06/16 11:28:31;;;;;;;7.38;3.75;;;;;;;26.99;26.07;98771.53;4965175;28;20299;-65
2023/06/16 11:30:58;;;;;;;5.60;4.00;;;;;;;27.35;26.02;98775.28;4954077;28;20833;-65
2023/06/16 11:33:26;;;;;;;8.50;4.10;;;;;;;27.26;24.72;98776.84;4964960;28;20788;-65
2023/06/16 11:35:53;;;;;;;5.80;4.10;;;;;;;27.07;25.95;98776.44;4966529;28;20247;-65
2023/06/16 11:38:25;;;;;;;6.43;4.00;;;;;;;26.63;25.20;98772.81;4957841;28;20255;-65
2023/06/16 11:40:53;;;;;;;7.13;3.97;;;;;;;26.61;25.17;98769.56;4953263;28;20229;-65
2023/06/16 11:43:23;;;;;;;10.07;3.92;;;;;;;26.54;25.33;98763.63;4953226;28;20709;-65
2023/06/16 11:45:51;;;;;;;7.32;4.20;;;;;;;26.17;25.99;98767.00;4957504;28;20263;-59